createdAt,value
2017-11-13T00:00:16.340Z,59.80
2017-11-13T00:02:43.888Z,59.40
2017-11-13T00:05:11.393Z,59.50
2017-11-13T00:07:39.665Z,59.40
2017-11-13T00:10:07.185Z,59.30
2017-11-13T00:12:34.720Z,59.40
2017-11-13T00:15:02.250Z,59.40
2017-11-13T00:17:29.744Z,59.30
2017-11-13T00:19:57.256Z,59.20
2017-11-13T00:22:27.487Z,59.10
2017-11-13T00:24:55.768Z,58.90
2017-11-13T00:27:23.272Z,58.90
2017-11-13T00:29:50.793Z,58.90
2017-11-13T00:32:18.323Z,59.10
2017-11-13T00:34:45.848Z,59.10
2017-11-13T00:37:13.348Z,59.00
2017-11-13T00:39:41.647Z,59.30
2017-11-13T00:42:09.165Z,59.20
2017-11-13T00:44:36.689Z,59.20
2017-11-13T00:47:04.200Z,59.10
2017-11-13T00:49:32.504Z,59.20
2017-11-13T00:52:00.021Z,59.10
2017-11-13T00:54:27.521Z,59.20
2017-11-13T00:56:55.054Z,59.20
2017-11-13T00:59:22.545Z,59.30
2017-11-13T01:01:50.067Z,59.30
2017-11-13T01:04:17.569Z,59.30
2017-11-13T01:06:45.104Z,59.20
2017-11-13T01:09:12.617Z,58.80
2017-11-13T01:11:40.132Z,58.80
2017-11-13T01:14:07.628Z,59.00
2017-11-13T01:16:35.149Z,58.90
2017-11-13T01:19:02.643Z,58.80
2017-11-13T01:21:30.157Z,59.00
2017-11-13T01:23:57.672Z,59.10
2017-11-13T01:26:25.405Z,59.10
2017-11-13T01:28:52.904Z,59.20
2017-11-13T01:31:20.552Z,59.20
2017-11-13T01:33:48.068Z,59.20
2017-11-13T01:36:15.573Z,58.90
2017-11-13T01:38:43.109Z,59.00
2017-11-13T01:41:10.612Z,59.20
2017-11-13T01:43:38.129Z,59.40
2017-11-13T01:46:05.628Z,59.20
2017-11-13T01:48:33.150Z,59.00
2017-11-13T01:51:00.658Z,59.10
2017-11-13T01:53:28.944Z,59.10
2017-11-13T01:55:57.220Z,59.20
2017-11-13T01:58:25.511Z,59.40
2017-11-13T02:00:53.015Z,59.30
2017-11-13T02:03:20.532Z,59.60
2017-11-13T02:05:48.030Z,59.70
2017-11-13T02:08:15.581Z,59.40
2017-11-13T02:10:43.097Z,59.30
2017-11-13T02:13:11.370Z,59.50
2017-11-13T02:15:39.664Z,59.50
2017-11-13T02:18:07.162Z,59.50
2017-11-13T02:20:34.681Z,59.60
2017-11-13T02:23:02.185Z,59.70
2017-11-13T02:25:29.705Z,59.80
2017-11-13T02:27:57.200Z,59.80
2017-11-13T02:30:24.721Z,59.80
2017-11-13T02:32:52.245Z,59.90
2017-11-13T02:35:19.771Z,59.80
2017-11-13T02:37:47.276Z,59.90
2017-11-13T02:40:14.806Z,60.00
2017-11-13T02:42:42.313Z,60.10
2017-11-13T02:45:09.828Z,60.20
2017-11-13T02:47:37.330Z,59.90
2017-11-13T02:50:04.856Z,59.80
2017-11-13T02:52:33.132Z,60.10
2017-11-13T02:55:00.637Z,60.00
2017-11-13T02:57:28.164Z,60.20
2017-11-13T02:59:56.437Z,60.10
2017-11-13T03:02:24.729Z,60.20
2017-11-13T03:04:52.242Z,60.10
2017-11-13T03:07:19.764Z,60.30
2017-11-13T03:09:47.269Z,60.50
2017-11-13T03:12:14.799Z,60.40
2017-11-13T03:14:42.304Z,60.40
2017-11-13T03:17:09.824Z,60.40
2017-11-13T03:19:37.332Z,60.50
2017-11-13T03:22:04.842Z,60.50
2017-11-13T03:24:32.344Z,60.60
2017-11-13T03:26:59.865Z,60.60
2017-11-13T03:29:27.368Z,60.50
2017-11-13T03:31:54.887Z,60.40
2017-11-13T03:34:22.384Z,60.30
2017-11-13T03:36:50.654Z,60.60
2017-11-13T03:39:18.947Z,60.70
2017-11-13T03:41:47.221Z,60.70
2017-11-13T03:44:15.508Z,60.70
2017-11-13T03:46:43.023Z,60.60
2017-11-13T03:49:10.541Z,60.70
2017-11-13T03:51:38.052Z,60.80
2017-11-13T03:54:05.585Z,60.60
2017-11-13T03:56:33.105Z,60.60
2017-11-13T03:59:00.696Z,60.60
2017-11-13T04:01:28.224Z,60.70
2017-11-13T04:03:55.749Z,60.80
2017-11-13T04:06:23.245Z,60.60
2017-11-13T04:08:50.788Z,60.70
2017-11-13T04:11:19.056Z,60.50
2017-11-13T04:13:47.350Z,60.70
2017-11-13T04:16:14.859Z,60.70
2017-11-13T04:18:42.396Z,60.90
2017-11-13T04:21:09.906Z,61.00
2017-11-13T04:23:38.185Z,60.70
2017-11-13T04:26:06.476Z,60.80
2017-11-13T04:28:34.748Z,60.60
2017-11-13T04:31:03.033Z,60.70
2017-11-13T04:33:30.536Z,60.60
2017-11-13T04:35:58.068Z,60.70
2017-11-13T04:38:25.573Z,60.80
2017-11-13T04:40:53.092Z,60.70
2017-11-13T04:43:20.612Z,60.80
2017-11-13T04:45:48.905Z,61.00
2017-11-13T04:48:16.404Z,60.90
2017-11-13T04:50:43.921Z,60.80
2017-11-13T04:53:11.435Z,60.70
2017-11-13T04:55:38.964Z,60.60
2017-11-13T04:58:06.472Z,60.80
2017-11-13T05:00:33.994Z,60.80
2017-11-13T05:03:01.512Z,60.60
2017-11-13T05:05:29.799Z,60.50
2017-11-13T05:07:57.329Z,60.40
2017-11-13T05:10:24.861Z,60.60
2017-11-13T05:12:52.380Z,60.70
2017-11-13T05:15:19.909Z,60.80
2017-11-13T05:17:47.424Z,60.90
2017-11-13T05:20:14.961Z,61.40
2017-11-13T05:22:42.484Z,61.00
2017-11-13T05:25:10.765Z,60.90
2017-11-13T05:27:39.073Z,61.40
2017-11-13T05:30:06.594Z,60.90
2017-11-13T05:32:34.120Z,60.90
2017-11-13T05:35:01.624Z,61.20
2017-11-13T05:37:29.908Z,61.20
2017-11-13T05:39:58.187Z,61.00
2017-11-13T05:42:26.481Z,61.20
2017-11-13T05:44:54.002Z,61.10
2017-11-13T05:47:21.542Z,61.20
2017-11-13T05:49:49.045Z,61.10
2017-11-13T05:52:17.351Z,61.20
2017-11-13T05:54:44.852Z,61.20
2017-11-13T05:57:12.369Z,61.10
2017-11-13T05:59:39.881Z,61.20
2017-11-13T06:02:07.411Z,61.20
2017-11-13T06:04:34.923Z,61.30
2017-11-13T06:07:02.449Z,61.10
2017-11-13T06:09:29.969Z,61.10
2017-11-13T06:11:57.496Z,61.00
2017-11-13T06:14:25.773Z,60.80
2017-11-13T06:16:54.064Z,61.00
2017-11-13T06:19:21.568Z,61.00
2017-11-13T06:21:49.093Z,60.90
2017-11-13T06:24:16.600Z,61.10
2017-11-13T06:26:44.119Z,61.20
2017-11-13T06:29:11.624Z,61.20
2017-11-13T06:31:39.941Z,61.00
2017-11-13T06:34:07.448Z,61.00
2017-11-13T06:36:34.968Z,61.00
2017-11-13T06:39:02.481Z,61.10
2017-11-13T06:41:30.771Z,61.40
2017-11-13T06:43:59.050Z,61.40
2017-11-13T06:46:26.585Z,62.00
2017-11-13T06:48:54.090Z,61.40
2017-11-13T06:51:21.635Z,61.40
2017-11-13T06:53:49.153Z,61.30
2017-11-13T06:56:16.676Z,61.50
2017-11-13T06:58:44.180Z,61.60
2017-11-13T07:01:11.712Z,61.60
2017-11-13T07:03:39.234Z,61.60
2017-11-13T07:06:06.764Z,61.80
2017-11-13T07:08:34.265Z,61.90
2017-11-13T07:11:01.825Z,61.80
2017-11-13T07:13:29.348Z,61.70
2017-11-13T07:15:57.624Z,61.70
2017-11-13T07:18:25.931Z,61.70
2017-11-13T07:20:53.472Z,61.70
2017-11-13T07:23:21.781Z,61.90
2017-11-13T07:25:49.300Z,61.80
2017-11-13T07:28:17.602Z,61.60
2017-11-13T07:30:45.118Z,61.50
2017-11-13T07:33:12.649Z,61.40
2017-11-13T07:35:40.161Z,61.40
2017-11-13T07:38:07.694Z,61.30
2017-11-13T07:40:35.202Z,61.10
2017-11-13T07:43:02.736Z,61.40
2017-11-13T07:45:31.017Z,61.60
2017-11-13T07:47:59.339Z,61.80
2017-11-13T07:50:26.852Z,61.80
2017-11-13T07:52:54.370Z,62.20
2017-11-13T07:55:21.889Z,62.70
2017-11-13T07:57:49.393Z,62.90
2017-11-13T08:00:16.925Z,63.00
2017-11-13T08:02:44.433Z,63.10
2017-11-13T08:05:11.961Z,63.00
2017-11-13T08:07:39.700Z,63.20
2017-11-13T08:10:07.245Z,63.20
2017-11-13T08:12:34.778Z,62.90
2017-11-13T08:15:02.301Z,63.10
2017-11-13T08:17:29.820Z,63.20
2017-11-13T08:19:57.352Z,63.10
2017-11-13T08:22:24.857Z,62.80
2017-11-13T08:24:52.401Z,63.00
2017-11-13T08:27:19.936Z,63.00
2017-11-13T08:29:48.236Z,62.90
2017-11-13T08:32:15.772Z,62.80
2017-11-13T08:34:44.055Z,63.00
2017-11-13T08:37:12.361Z,63.30
2017-11-13T08:39:39.881Z,63.10
2017-11-13T08:42:07.409Z,62.80
2017-11-13T08:44:34.942Z,62.80
2017-11-13T08:47:03.240Z,63.20
2017-11-13T08:49:30.752Z,63.10
2017-11-13T08:51:59.052Z,63.40
2017-11-13T08:54:26.573Z,63.40
2017-11-13T08:56:54.873Z,63.30
2017-11-13T08:59:22.406Z,63.30
2017-11-13T09:01:49.932Z,63.20
2017-11-13T09:04:17.444Z,63.60
2017-11-13T09:06:46.285Z,63.60
2017-11-13T09:09:13.797Z,63.50
2017-11-13T09:11:42.100Z,63.40
2017-11-13T09:14:09.605Z,63.30
2017-11-13T09:16:37.133Z,63.40
2017-11-13T09:19:04.654Z,63.10
2017-11-13T09:21:32.960Z,62.90
2017-11-13T09:24:00.495Z,62.70
2017-11-13T09:26:28.037Z,62.50
2017-11-13T09:28:56.320Z,62.30
2017-11-13T09:31:24.668Z,62.10
2017-11-13T09:33:52.181Z,62.00
2017-11-13T09:36:19.712Z,62.00
2017-11-13T09:38:47.222Z,62.10
2017-11-13T09:41:14.760Z,62.20
2017-11-13T09:43:42.299Z,61.60
2017-11-13T09:46:10.563Z,61.20
2017-11-13T09:48:38.865Z,61.30
2017-11-13T09:51:06.364Z,61.20
2017-11-13T09:53:33.902Z,61.10
2017-11-13T09:56:01.413Z,61.20
2017-11-13T09:58:29.712Z,61.50
2017-11-13T10:00:57.217Z,60.90
2017-11-13T10:03:24.744Z,60.90
2017-11-13T10:05:52.255Z,61.00
2017-11-13T10:08:19.788Z,60.60
2017-11-13T10:10:47.290Z,60.30
2017-11-13T10:13:14.824Z,60.00
2017-11-13T10:15:42.349Z,60.00
2017-11-13T10:18:09.868Z,60.00
2017-11-13T10:20:38.137Z,59.10
2017-11-13T10:23:05.660Z,59.00
2017-11-13T10:25:33.157Z,59.40
2017-11-13T10:28:01.477Z,59.90
2017-11-13T10:30:28.987Z,59.90
2017-11-13T10:32:56.488Z,59.60
2017-11-13T10:35:24.014Z,58.70
2017-11-13T10:37:52.324Z,59.00
2017-11-13T10:40:19.874Z,58.90
2017-11-13T10:42:47.384Z,59.00
2017-11-13T10:45:14.913Z,59.00
2017-11-13T10:47:42.421Z,59.00
2017-11-13T10:50:09.946Z,58.30
2017-11-13T10:52:37.581Z,58.00
2017-11-13T10:55:05.113Z,57.20
2017-11-13T10:57:33.381Z,56.80
2017-11-13T11:00:00.927Z,56.70
2017-11-13T11:02:28.433Z,57.20
2017-11-13T11:04:55.946Z,57.40
2017-11-13T11:07:23.465Z,57.60
2017-11-13T11:09:50.969Z,57.60
2017-11-13T11:12:33.379Z,57.50
2017-11-13T11:15:16.530Z,57.50
2017-11-13T11:17:49.659Z,56.90
2017-11-13T11:20:19.642Z,57.40
2017-11-13T11:22:48.082Z,57.50
2017-11-13T11:25:15.589Z,57.10
2017-11-13T11:27:43.108Z,57.20
2017-11-13T11:30:11.521Z,56.40
2017-11-13T11:32:41.286Z,56.40
2017-11-13T11:40:07.261Z,56.60
2017-11-13T11:42:34.788Z,57.20
2017-11-13T11:45:06.204Z,56.50
2017-11-13T11:47:34.189Z,55.90
2017-11-13T11:50:01.699Z,56.70
2017-11-13T11:52:29.332Z,56.40
2017-11-13T11:55:01.437Z,55.70
2017-11-13T11:57:28.992Z,55.20
2017-11-13T11:59:56.531Z,55.10
2017-11-13T12:02:24.031Z,54.70
2017-11-13T12:04:51.569Z,54.70
2017-11-13T12:07:19.853Z,55.40
2017-11-13T12:09:47.367Z,55.30
2017-11-13T12:12:14.872Z,54.10
2017-11-13T12:14:42.409Z,54.20
2017-11-13T12:17:09.912Z,54.00
2017-11-13T12:19:37.423Z,54.30
2017-11-13T12:22:04.919Z,53.90
2017-11-13T12:24:32.444Z,53.40
2017-11-13T12:26:59.941Z,53.40
2017-11-13T12:29:28.450Z,53.00
2017-11-13T12:31:56.095Z,52.90
2017-11-13T12:34:23.634Z,53.10
2017-11-13T12:36:51.276Z,53.50
2017-11-13T12:39:18.803Z,52.60
2017-11-13T12:41:46.316Z,52.10
2017-11-13T12:44:14.601Z,51.60
2017-11-13T12:46:42.169Z,51.50
2017-11-13T12:49:09.710Z,51.50
2017-11-13T12:51:37.988Z,51.70
2017-11-13T12:54:05.493Z,51.70
2017-11-13T12:56:33.047Z,51.90
2017-11-13T12:59:00.615Z,52.40
2017-11-13T13:01:28.149Z,53.60
2017-11-13T13:03:55.657Z,52.80
2017-11-13T13:06:23.236Z,52.90
2017-11-13T13:08:51.504Z,52.70
2017-11-13T13:11:19.021Z,52.40
2017-11-13T13:13:46.534Z,52.60
2017-11-13T13:16:14.820Z,52.40
2017-11-13T13:18:43.104Z,52.40
2017-11-13T13:21:10.646Z,52.40
2017-11-13T13:23:38.149Z,52.10
2017-11-13T13:26:05.671Z,52.30
2017-11-13T13:28:33.973Z,52.40
2017-11-13T13:31:01.477Z,52.30
2017-11-13T13:33:29.001Z,52.60
2017-11-13T13:35:56.506Z,52.60
2017-11-13T13:38:24.035Z,52.80
2017-11-13T13:40:51.546Z,52.50
2017-11-13T13:43:19.105Z,51.90
2017-11-13T13:45:46.616Z,52.00
2017-11-13T13:48:14.133Z,52.10
2017-11-13T13:50:41.632Z,52.40
2017-11-13T13:53:09.160Z,52.70
2017-11-13T13:55:36.673Z,53.30
2017-11-13T13:58:04.233Z,53.20
2017-11-13T14:00:31.733Z,52.60
2017-11-13T14:02:59.288Z,52.40
2017-11-13T14:05:26.796Z,52.10
2017-11-13T14:07:54.330Z,52.20
2017-11-13T14:10:21.873Z,52.60
2017-11-13T14:12:49.387Z,52.40
2017-11-13T14:15:16.908Z,51.80
2017-11-13T14:17:44.416Z,52.00
2017-11-13T14:20:11.944Z,52.10
2017-11-13T14:22:39.437Z,51.00
2017-11-13T14:25:06.953Z,51.50
2017-11-13T14:27:34.455Z,51.90
2017-11-13T14:30:01.976Z,52.00
2017-11-13T14:32:29.485Z,51.80
2017-11-13T14:34:57.787Z,51.50
2017-11-13T14:37:25.303Z,51.50
2017-11-13T14:39:52.860Z,51.70
2017-11-13T14:42:20.364Z,52.10
2017-11-13T14:44:47.882Z,52.50
2017-11-13T14:47:16.186Z,53.40
2017-11-13T14:49:43.684Z,53.30
2017-11-13T14:52:11.200Z,52.90
2017-11-13T14:54:39.469Z,52.90
2017-11-13T14:57:07.764Z,52.60
2017-11-13T14:59:35.270Z,52.60
2017-11-13T15:02:02.793Z,52.90
2017-11-13T15:04:30.298Z,53.00
2017-11-13T15:06:57.811Z,52.90
2017-11-13T15:09:25.317Z,53.00
2017-11-13T15:11:52.857Z,53.10
2017-11-13T15:14:20.357Z,53.00
2017-11-13T15:16:48.620Z,53.40
2017-11-13T15:19:16.140Z,53.40
2017-11-13T15:21:43.654Z,53.60
2017-11-13T15:24:11.945Z,53.80
2017-11-13T15:26:39.463Z,53.80
2017-11-13T15:29:06.996Z,54.10
2017-11-13T15:31:34.504Z,54.30
2017-11-13T15:34:02.789Z,54.60
2017-11-13T15:36:30.291Z,54.60
2017-11-13T15:38:57.819Z,54.70
2017-11-13T15:41:25.315Z,54.80
2017-11-13T15:43:52.831Z,55.00
2017-11-13T15:46:20.334Z,55.10
2017-11-13T15:48:47.872Z,55.20
2017-11-13T15:51:15.748Z,55.40
2017-11-13T15:53:43.252Z,55.60
2017-11-13T15:56:10.772Z,55.80
2017-11-13T15:58:38.277Z,55.70
2017-11-13T16:01:05.804Z,56.40
2017-11-13T16:03:33.304Z,56.60
2017-11-13T16:06:01.596Z,56.90
2017-11-13T16:08:29.097Z,56.80
2017-11-13T16:10:56.625Z,56.90
2017-11-13T16:13:24.145Z,57.10
2017-11-13T16:15:51.689Z,57.40
2017-11-13T16:18:19.208Z,57.30
2017-11-13T16:20:47.516Z,57.20
2017-11-13T16:23:15.020Z,57.20
2017-11-13T16:25:42.520Z,57.40
2017-11-13T16:28:10.055Z,57.40
2017-11-13T16:30:37.568Z,57.50
2017-11-13T16:33:05.095Z,57.50
2017-11-13T16:35:32.610Z,57.50
2017-11-13T16:38:00.140Z,57.60
2017-11-13T16:40:27.650Z,57.80
2017-11-13T16:42:55.175Z,57.90
2017-11-13T16:45:22.688Z,57.80
2017-11-13T16:47:50.236Z,57.80
2017-11-13T16:50:17.753Z,57.70
2017-11-13T16:52:45.269Z,57.90
2017-11-13T16:55:12.794Z,58.00
2017-11-13T16:57:40.303Z,58.00
2017-11-13T17:00:07.815Z,57.90
2017-11-13T17:02:35.327Z,57.80
2017-11-13T17:05:02.862Z,57.80
2017-11-13T17:07:30.373Z,57.80
2017-11-13T17:09:58.669Z,57.90
2017-11-13T17:12:26.184Z,57.90
2017-11-13T17:14:53.699Z,58.00
2017-11-13T17:17:21.208Z,58.10
2017-11-13T17:19:48.733Z,58.30
2017-11-13T17:22:16.235Z,58.40
2017-11-13T17:24:43.796Z,58.40
2017-11-13T17:27:12.072Z,58.60
2017-11-13T17:29:40.378Z,58.80
2017-11-13T17:32:07.913Z,58.10
2017-11-13T17:34:36.200Z,58.10
2017-11-13T17:37:03.727Z,58.10
2017-11-13T17:39:31.231Z,58.10
2017-11-13T17:41:58.772Z,58.20
2017-11-13T17:44:27.048Z,58.00
2017-11-13T17:46:55.351Z,58.10
2017-11-13T17:49:22.857Z,58.00
2017-11-13T17:51:50.384Z,58.10
2017-11-13T17:54:17.908Z,58.20
2017-11-13T17:56:46.209Z,58.40
2017-11-13T17:59:13.725Z,58.40
2017-11-13T18:01:41.241Z,58.30
2017-11-13T18:04:08.777Z,58.30
2017-11-13T18:06:36.292Z,58.40
2017-11-13T18:09:03.813Z,58.50
2017-11-13T18:11:31.322Z,58.50
2017-11-13T18:13:58.853Z,58.50
2017-11-13T18:16:26.360Z,59.30
2017-11-13T18:18:54.656Z,58.80
2017-11-13T18:21:22.173Z,58.70
2017-11-13T18:23:49.705Z,58.80
2017-11-13T18:26:17.221Z,58.90
2017-11-13T18:28:45.693Z,58.90
2017-11-13T18:31:13.208Z,59.00
2017-11-13T18:33:40.728Z,58.90
2017-11-13T18:36:08.254Z,58.80
2017-11-13T18:38:35.758Z,58.80
2017-11-13T18:41:03.295Z,59.50
2017-11-13T18:43:30.835Z,58.90
2017-11-13T18:45:58.357Z,58.90
2017-11-13T18:48:25.874Z,59.00
2017-11-13T18:50:54.349Z,59.00
2017-11-13T18:53:22.612Z,58.80
2017-11-13T18:55:50.133Z,58.70
2017-11-13T18:58:17.664Z,58.60
2017-11-13T19:00:45.176Z,58.60
2017-11-13T19:03:12.688Z,58.40
2017-11-13T19:05:40.225Z,58.40
2017-11-13T19:08:08.529Z,58.40
2017-11-13T19:10:36.038Z,58.40
2017-11-13T19:13:03.563Z,58.50
2017-11-13T19:15:31.072Z,58.40
2017-11-13T19:17:58.611Z,58.20
2017-11-13T19:20:26.125Z,58.10
2017-11-13T19:22:53.636Z,58.40
2017-11-13T19:25:21.168Z,58.30
2017-11-13T19:27:48.668Z,58.80
2017-11-13T19:30:16.974Z,58.60
2017-11-13T19:32:44.472Z,58.60
2017-11-13T19:35:12.014Z,58.50
2017-11-13T19:37:39.530Z,58.40
2017-11-13T19:40:07.846Z,58.70
2017-11-13T19:42:35.352Z,58.60
2017-11-13T19:45:02.871Z,58.80
2017-11-13T19:47:30.403Z,59.00
2017-11-13T19:49:57.908Z,59.00
2017-11-13T19:52:25.444Z,58.90
2017-11-13T19:54:52.957Z,59.00
2017-11-13T19:57:21.243Z,59.20
2017-11-13T19:59:48.748Z,59.10
2017-11-13T20:02:16.278Z,59.20
2017-11-13T20:04:43.780Z,59.20
2017-11-13T20:07:11.344Z,59.20
2017-11-13T20:09:38.852Z,59.20
2017-11-13T20:12:06.368Z,59.30
2017-11-13T20:14:33.896Z,59.40
2017-11-13T20:17:01.403Z,59.40
2017-11-13T20:19:29.693Z,59.50
2017-11-13T20:21:57.197Z,59.40
2017-11-13T20:24:24.729Z,59.50
2017-11-13T20:26:52.245Z,59.60
2017-11-13T20:29:19.781Z,59.70
2017-11-13T20:31:47.291Z,59.70
2017-11-13T20:34:14.817Z,59.70
2017-11-13T20:36:42.324Z,59.70
2017-11-13T20:39:09.874Z,59.70
2017-11-13T20:41:37.380Z,59.60
2017-11-13T20:44:04.894Z,59.60
2017-11-13T20:46:32.442Z,59.60
2017-11-13T20:48:59.970Z,59.60
2017-11-13T20:51:27.686Z,59.70
2017-11-13T20:53:55.194Z,59.80
2017-11-13T20:56:22.715Z,59.70
2017-11-13T20:58:50.231Z,59.80
2017-11-13T21:01:18.540Z,59.70
2017-11-13T21:03:46.043Z,59.70
2017-11-13T21:06:13.569Z,59.80
2017-11-13T21:08:41.093Z,59.80
2017-11-13T21:11:08.647Z,59.90
2017-11-13T21:13:36.149Z,59.80
2017-11-13T21:16:03.667Z,59.70
2017-11-13T21:18:31.192Z,59.70
2017-11-13T21:20:58.691Z,59.80
2017-11-13T21:23:26.219Z,59.90
2017-11-13T21:25:53.740Z,60.00
2017-11-13T21:28:21.268Z,59.90
2017-11-13T21:30:49.545Z,59.90
2017-11-13T21:33:17.067Z,59.90
2017-11-13T21:35:44.568Z,60.00
2017-11-13T21:38:12.095Z,59.90
2017-11-13T21:40:39.596Z,60.10
2017-11-13T21:43:07.120Z,60.00
2017-11-13T21:45:34.638Z,60.00
2017-11-13T21:48:02.186Z,60.10
2017-11-13T21:50:29.704Z,60.10
2017-11-13T21:52:57.214Z,60.20
2017-11-13T21:55:24.753Z,60.10
2017-11-13T21:57:52.260Z,60.00
2017-11-13T22:00:19.796Z,59.90
2017-11-13T22:02:47.301Z,59.80
2017-11-13T22:05:15.588Z,59.70
2017-11-13T22:07:43.865Z,59.60
2017-11-13T22:10:12.160Z,59.50
2017-11-13T22:12:39.673Z,59.40
2017-11-13T22:15:07.188Z,59.40
2017-11-13T22:17:34.717Z,59.30
2017-11-13T22:20:03.000Z,59.30
2017-11-13T22:22:30.510Z,59.20
2017-11-13T22:24:58.045Z,59.20
2017-11-13T22:27:26.321Z,59.20
2017-11-13T22:29:53.852Z,59.10
2017-11-13T22:32:22.133Z,59.20
2017-11-13T22:34:49.655Z,59.20
2017-11-13T22:37:17.152Z,59.20
2017-11-13T22:39:44.685Z,59.10
2017-11-13T22:42:12.192Z,59.20
2017-11-13T22:44:39.720Z,59.10
2017-11-13T22:47:08.012Z,59.20
2017-11-13T22:49:35.534Z,59.10
2017-11-13T22:52:03.063Z,59.10
2017-11-13T22:54:30.583Z,59.10
2017-11-13T22:56:58.114Z,59.10
2017-11-13T22:59:25.620Z,59.10
2017-11-13T23:01:53.145Z,59.60
2017-11-13T23:04:21.448Z,59.00
2017-11-13T23:06:49.000Z,59.00
2017-11-13T23:09:16.503Z,58.90
2017-11-13T23:11:44.007Z,59.00
2017-11-13T23:14:12.308Z,59.00
2017-11-13T23:16:39.808Z,59.00
2017-11-13T23:19:07.325Z,58.90
2017-11-13T23:21:34.826Z,59.10
2017-11-13T23:24:02.345Z,59.20
2017-11-13T23:26:29.861Z,59.30
2017-11-13T23:28:57.392Z,59.40
2017-11-13T23:31:24.896Z,60.10
2017-11-13T23:33:53.192Z,59.90
2017-11-13T23:36:20.700Z,59.80
2017-11-13T23:38:48.249Z,60.00
2017-11-13T23:41:15.761Z,60.10
2017-11-13T23:43:43.267Z,61.00
2017-11-13T23:46:10.794Z,60.40
2017-11-13T23:48:38.307Z,60.70
2017-11-13T23:51:05.829Z,60.80
2017-11-13T23:53:33.339Z,60.90
2017-11-13T23:56:01.632Z,61.00
2017-11-13T23:58:29.144Z,60.90
